sensor_id;sensor_type;location;lat;lon;timestamp;pressure;altitude;pressure_sealevel;temperature;humidity
57600;BME280;43426;43.594;24.334;2023-04-24T00:00:55;100842.53;;;9.75;97.90
57600;BME280;43426;43.594;24.334;2023-04-24T00:03:26;100836.66;;;9.71;98.57
57600;BME280;43426;43.594;24.334;2023-04-24T00:05:53;100842.38;;;9.68;100.00
57600;BME280;43426;43.594;24.334;2023-04-24T00:08:19;100843.00;;;9.62;99.74
57600;BME280;43426;43.594;24.334;2023-04-24T00:10:44;100824.97;;;9.54;99.49
57600;BME280;43426;43.594;24.334;2023-04-24T00:13:10;100813.75;;;9.32;100.00
57600;BME280;43426;43.594;24.334;2023-04-24T00:15:35;100800.69;;;9.46;100.00
57600;BME280;43426;43.594;24.334;2023-04-24T00:18:01;100782.03;;;9.44;100.00
57600;BME280;43426;43.594;24.334;2023-04-24T00:20:27;100822.56;;;9.43;100.00
57600;BME280;43426;43.594;24.334;2023-04-24T00:22:54;100823.81;;;9.22;100.00
57600;BME280;43426;43.594;24.334;2023-04-24T00:25:20;100817.28;;;9.33;100.00
57600;BME280;43426;43.594;24.334;2023-04-24T00:27:45;100816.47;;;9.32;100.00
57600;BME280;43426;43.594;24.334;2023-04-24T00:30:11;100775.03;;;9.25;100.00
57600;BME280;43426;43.594;24.334;2023-04-24T00:32:36;100766.78;;;9.27;100.00
57600;BME280;43426;43.594;24.334;2023-04-24T00:35:02;100800.69;;;9.46;100.00
57600;BME280;43426;43.594;24.334;2023-04-24T00:37:27;100808.41;;;9.41;100.00
57600;BME280;43426;43.594;24.334;2023-04-24T00:39:53;100775.63;;;9.11;100.00
57600;BME280;43426;43.594;24.334;2023-04-24T00:42:19;100802.00;;;9.33;100.00
57600;BME280;43426;43.594;24.334;2023-04-24T00:44:45;100790.69;;;9.30;100.00
57600;BME280;43426;43.594;24.334;2023-04-24T00:47:11;100795.94;;;9.40;100.00
57600;BME280;43426;43.594;24.334;2023-04-24T00:49:39;100781.63;;;9.31;100.00
57600;BME280;43426;43.594;24.334;2023-04-24T00:52:04;100789.19;;;9.35;100.00
57600;BME280;43426;43.594;24.334;2023-04-24T00:54:33;100772.84;;;9.29;100.00
57600;BME280;43426;43.594;24.334;2023-04-24T00:56:58;100760.06;;;9.31;100.00
57600;BME280;43426;43.594;24.334;2023-04-24T00:59:23;100766.50;;;9.38;100.00
57600;BME280;43426;43.594;24.334;2023-04-24T01:01:49;100750.22;;;9.13;100.00
57600;BME280;43426;43.594;24.334;2023-04-24T01:04:16;100743.16;;;9.12;100.00
57600;BME280;43426;43.594;24.334;2023-04-24T01:06:44;100751.75;;;9.16;100.00
57600;BME280;43426;43.594;24.334;2023-04-24T01:09:10;100787.38;;;9.36;100.00
57600;BME280;43426;43.594;24.334;2023-04-24T01:11:37;100790.16;;;9.26;100.00
57600;BME280;43426;43.594;24.334;2023-04-24T01:14:02;100780.59;;;9.24;100.00
57600;BME280;43426;43.594;24.334;2023-04-24T01:16:28;100756.09;;;9.09;100.00
57600;BME280;43426;43.594;24.334;2023-04-24T01:18:54;100784.75;;;9.18;100.00
57600;BME280;43426;43.594;24.334;2023-04-24T01:21:20;100762.72;;;8.88;100.00
57600;BME280;43426;43.594;24.334;2023-04-24T01:23:46;100769.16;;;8.95;100.00
57600;BME280;43426;43.594;24.334;2023-04-24T01:26:15;100775.84;;;8.91;100.00
57600;BME280;43426;43.594;24.334;2023-04-24T01:28:41;100728.94;;;8.59;100.00
57600;BME280;43426;43.594;24.334;2023-04-24T01:31:07;100755.94;;;8.76;100.00
57600;BME280;43426;43.594;24.334;2023-04-24T01:33:32;100754.19;;;8.66;100.00
57600;BME280;43426;43.594;24.334;2023-04-24T01:35:58;100778.94;;;8.70;100.00
57600;BME280;43426;43.594;24.334;2023-04-24T01:38:23;100774.16;;;8.64;100.00
57600;BME280;43426;43.594;24.334;2023-04-24T01:40:49;100757.63;;;8.50;100.00
57600;BME280;43426;43.594;24.334;2023-04-24T01:43:15;100774.38;;;8.71;100.00
57600;BME280;43426;43.594;24.334;2023-04-24T01:45:40;100775.03;;;8.64;100.00
57600;BME280;43426;43.594;24.334;2023-04-24T01:48:06;100765.09;;;8.65;100.00
57600;BME280;43426;43.594;24.334;2023-04-24T01:50:31;100735.56;;;8.47;100.00
57600;BME280;43426;43.594;24.334;2023-04-24T01:52:57;100777.34;;;8.59;100.00
57600;BME280;43426;43.594;24.334;2023-04-24T01:55:23;100784.66;;;8.49;100.00
57600;BME280;43426;43.594;24.334;2023-04-24T01:57:48;100772.75;;;8.51;100.00
57600;BME280;43426;43.594;24.334;2023-04-24T02:00:14;100772.84;;;8.68;100.00
57600;BME280;43426;43.594;24.334;2023-04-24T02:02:40;100775.31;;;8.79;100.00
57600;BME280;43426;43.594;24.334;2023-04-24T02:05:08;100749.94;;;8.56;100.00
57600;BME280;43426;43.594;24.334;2023-04-24T02:07:34;100784.09;;;8.63;100.00
57600;BME280;43426;43.594;24.334;2023-04-24T02:10:00;100763.22;;;8.57;100.00
57600;BME280;43426;43.594;24.334;2023-04-24T02:12:25;100800.78;;;8.67;100.00
57600;BME280;43426;43.594;24.334;2023-04-24T02:14:51;100783.72;;;8.40;100.00
57600;BME280;43426;43.594;24.334;2023-04-24T02:17:16;100802.47;;;8.50;100.00
57600;BME280;43426;43.594;24.334;2023-04-24T02:19:42;100817.13;;;8.74;100.00
57600;BME280;43426;43.594;24.334;2023-04-24T02:22:08;100814.44;;;8.74;100.00
57600;BME280;43426;43.594;24.334;2023-04-24T02:24:33;100803.31;;;8.68;100.00
57600;BME280;43426;43.594;24.334;2023-04-24T02:26:59;100826.34;;;8.71;100.00
57600;BME280;43426;43.594;24.334;2023-04-24T02:29:25;100819.66;;;8.75;100.00
57600;BME280;43426;43.594;24.334;2023-04-24T02:31:50;100798.25;;;8.65;100.00
57600;BME280;43426;43.594;24.334;2023-04-24T02:34:15;100812.41;;;8.76;100.00
57600;BME280;43426;43.594;24.334;2023-04-24T02:36:41;100806.81;;;8.69;100.00
57600;BME280;43426;43.594;24.334;2023-04-24T02:39:06;100798.47;;;8.54;100.00
57600;BME280;43426;43.594;24.334;2023-04-24T02:41:32;100768.69;;;8.29;100.00
57600;BME280;43426;43.594;24.334;2023-04-24T02:43:58;100754.47;;;8.19;100.00
57600;BME280;43426;43.594;24.334;2023-04-24T02:46:24;100780.44;;;8.28;100.00
57600;BME280;43426;43.594;24.334;2023-04-24T02:48:49;100758.00;;;8.01;100.00
57600;BME280;43426;43.594;24.334;2023-04-24T02:51:15;100770.06;;;8.15;100.00
57600;BME280;43426;43.594;24.334;2023-04-24T02:53:40;100775.97;;;8.19;100.00
57600;BME280;43426;43.594;24.334;2023-04-24T02:56:05;100748.66;;;8.06;100.00
57600;BME280;43426;43.594;24.334;2023-04-24T02:58:31;100786.81;;;8.27;100.00
57600;BME280;43426;43.594;24.334;2023-04-24T03:00:56;100755.72;;;8.07;100.00
57600;BME280;43426;43.594;24.334;2023-04-24T03:03:23;100783.13;;;8.28;100.00
57600;BME280;43426;43.594;24.334;2023-04-24T03:05:49;100795.13;;;8.16;100.00
57600;BME280;43426;43.594;24.334;2023-04-24T03:08:14;100750.50;;;7.87;100.00
57600;BME280;43426;43.594;24.334;2023-04-24T03:10:40;100790.56;;;8.16;100.00
57600;BME280;43426;43.594;24.334;2023-04-24T03:13:05;100762.56;;;8.01;100.00
57600;BME280;43426;43.594;24.334;2023-04-24T03:15:31;100784.03;;;8.19;100.00
57600;BME280;43426;43.594;24.334;2023-04-24T03:17:56;100785.97;;;8.27;100.00
57600;BME280;43426;43.594;24.334;2023-04-24T03:20:22;100791.50;;;8.25;100.00
57600;BME280;43426;43.594;24.334;2023-04-24T03:22:47;100769.84;;;8.09;100.00
57600;BME280;43426;43.594;24.334;2023-04-24T03:25:13;100780.53;;;8.18;100.00
57600;BME280;43426;43.594;24.334;2023-04-24T03:27:38;100756.94;;;8.12;100.00
57600;BME280;43426;43.594;24.334;2023-04-24T03:30:08;100767.25;;;8.17;100.00
57600;BME280;43426;43.594;24.334;2023-04-24T03:32:33;100786.81;;;8.27;100.00
57600;BME280;43426;43.594;24.334;2023-04-24T03:34:59;100782.19;;;8.19;100.00
57600;BME280;43426;43.594;24.334;2023-04-24T03:37:27;100805.72;;;8.17;100.00
57600;BME280;43426;43.594;24.334;2023-04-24T03:39:52;100797.41;;;8.29;100.00
57600;BME280;43426;43.594;24.334;2023-04-24T03:42:18;100801.31;;;8.34;100.00
57600;BME280;43426;43.594;24.334;2023-04-24T03:44:43;100793.63;;;8.40;100.00
57600;BME280;43426;43.594;24.334;2023-04-24T03:47:09;100756.75;;;8.50;100.00
57600;BME280;43426;43.594;24.334;2023-04-24T03:49:34;100741.34;;;8.34;100.00
57600;BME280;43426;43.594;24.334;2023-04-24T03:52:00;100810.31;;;8.61;100.00
57600;BME280;43426;43.594;24.334;2023-04-24T03:54:25;100754.72;;;8.26;100.00
57600;BME280;43426;43.594;24.334;2023-04-24T03:56:51;100803.06;;;8.62;100.00
57600;BME280;43426;43.594;24.334;2023-04-24T03:59:16;100812.59;;;8.74;100.00
57600;BME280;43426;43.594;24.334;2023-04-24T04:01:41;100810.47;;;8.86;100.00
57600;BME280;43426;43.594;24.334;2023-04-24T04:04:07;100791.78;;;9.11;100.00
57600;BME280;43426;43.594;24.334;2023-04-24T04:06:33;100793.47;;;9.12;100.00
57600;BME280;43426;43.594;24.334;2023-04-24T04:08:58;100805.09;;;9.20;100.00
57600;BME280;43426;43.594;24.334;2023-04-24T04:11:24;100785.75;;;9.17;100.00
57600;BME280;43426;43.594;24.334;2023-04-24T04:13:50;100806.00;;;9.29;100.00
57600;BME280;43426;43.594;24.334;2023-04-24T04:16:16;100821.59;;;9.52;100.00
57600;BME280;43426;43.594;24.334;2023-04-24T04:18:44;100809.75;;;9.87;99.42
57600;BME280;43426;43.594;24.334;2023-04-24T04:21:10;100790.38;;;9.92;98.05
57600;BME280;43426;43.594;24.334;2023-04-24T04:23:35;100821.78;;;10.18;96.97
57600;BME280;43426;43.594;24.334;2023-04-24T04:26:01;100836.94;;;10.27;97.43
57600;BME280;43426;43.594;24.334;2023-04-24T04:28:29;100823.84;;;10.65;96.04
57600;BME280;43426;43.594;24.334;2023-04-24T04:30:57;100845.25;;;10.59;95.08
57600;BME280;43426;43.594;24.334;2023-04-24T04:33:23;100846.78;;;10.61;94.22
57600;BME280;43426;43.594;24.334;2023-04-24T04:35:48;100833.63;;;10.42;96.34
57600;BME280;43426;43.594;24.334;2023-04-24T04:38:14;100839.69;;;10.68;94.24
57600;BME280;43426;43.594;24.334;2023-04-24T04:40:40;100854.84;;;10.36;95.33
57600;BME280;43426;43.594;24.334;2023-04-24T04:43:06;100856.50;;;10.29;97.27
57600;BME280;43426;43.594;24.334;2023-04-24T04:45:31;100857.50;;;10.28;97.98
57600;BME280;43426;43.594;24.334;2023-04-24T04:47:58;100853.47;;;10.24;99.35
57600;BME280;43426;43.594;24.334;2023-04-24T04:50:26;100846.09;;;10.43;98.85
57600;BME280;43426;43.594;24.334;2023-04-24T04:52:54;100815.03;;;10.30;98.89
57600;BME280;43426;43.594;24.334;2023-04-24T04:55:19;100841.38;;;10.61;98.32
57600;BME280;43426;43.594;24.334;2023-04-24T04:57:45;100825.16;;;11.02;97.88
57600;BME280;43426;43.594;24.334;2023-04-24T05:00:11;100816.78;;;11.68;93.06
57600;BME280;43426;43.594;24.334;2023-04-24T05:02:40;100796.41;;;11.97;89.38
57600;BME280;43426;43.594;24.334;2023-04-24T05:05:06;100801.44;;;12.47;86.55
57600;BME280;43426;43.594;24.334;2023-04-24T05:07:32;100829.94;;;12.95;85.87
57600;BME280;43426;43.594;24.334;2023-04-24T05:09:58;100814.81;;;13.31;83.12
57600;BME280;43426;43.594;24.334;2023-04-24T05:12:23;100818.72;;;13.73;81.55
57600;BME280;43426;43.594;24.334;2023-04-24T05:14:48;100814.00;;;13.97;79.21
57600;BME280;43426;43.594;24.334;2023-04-24T05:17:14;100799.03;;;14.44;78.60
57600;BME280;43426;43.594;24.334;2023-04-24T05:19:40;100803.59;;;14.87;75.74
57600;BME280;43426;43.594;24.334;2023-04-24T05:22:05;100783.34;;;14.96;75.04
57600;BME280;43426;43.594;24.334;2023-04-24T05:24:33;100795.47;;;15.29;75.38
57600;BME280;43426;43.594;24.334;2023-04-24T05:26:59;100758.97;;;15.52;72.92
57600;BME280;43426;43.594;24.334;2023-04-24T05:29:24;100794.53;;;16.05;70.02
57600;BME280;43426;43.594;24.334;2023-04-24T05:31:51;100770.25;;;16.04;67.83
57600;BME280;43426;43.594;24.334;2023-04-24T05:34:16;100794.56;;;16.39;67.73
57600;BME280;43426;43.594;24.334;2023-04-24T05:36:42;100767.34;;;16.32;66.67
57600;BME280;43426;43.594;24.334;2023-04-24T05:39:07;100784.53;;;16.52;68.48
57600;BME280;43426;43.594;24.334;2023-04-24T05:41:33;100769.41;;;16.83;67.05
57600;BME280;43426;43.594;24.334;2023-04-24T05:43:59;100778.31;;;17.38;66.11
57600;BME280;43426;43.594;24.334;2023-04-24T05:46:24;100770.38;;;17.81;65.64
57600;BME280;43426;43.594;24.334;2023-04-24T05:48:50;100793.75;;;18.09;65.41
57600;BME280;43426;43.594;24.334;2023-04-24T05:51:15;100779.75;;;17.99;64.69
57600;BME280;43426;43.594;24.334;2023-04-24T05:53:40;100768.94;;;17.72;62.76
57600;BME280;43426;43.594;24.334;2023-04-24T05:56:06;100772.00;;;17.50;63.17
57600;BME280;43426;43.594;24.334;2023-04-24T05:58:31;100805.06;;;16.95;64.80
57600;BME280;43426;43.594;24.334;2023-04-24T06:00:57;100791.66;;;16.54;64.87
57600;BME280;43426;43.594;24.334;2023-04-24T06:03:24;100796.25;;;16.26;67.72
57600;BME280;43426;43.594;24.334;2023-04-24T06:05:49;100804.44;;;16.46;67.73
57600;BME280;43426;43.594;24.334;2023-04-24T06:08:15;100782.38;;;16.01;68.54
57600;BME280;43426;43.594;24.334;2023-04-24T06:10:43;100799.50;;;15.81;68.73
57600;BME280;43426;43.594;24.334;2023-04-24T06:13:08;100809.59;;;16.01;69.48
57600;BME280;43426;43.594;24.334;2023-04-24T06:15:34;100776.94;;;16.01;69.54
57600;BME280;43426;43.594;24.334;2023-04-24T06:17:59;100805.50;;;16.92;67.70
57600;BME280;43426;43.594;24.334;2023-04-24T06:20:24;100808.38;;;17.24;67.13
57600;BME280;43426;43.594;24.334;2023-04-24T06:22:50;100805.91;;;17.68;66.85
57600;BME280;43426;43.594;24.334;2023-04-24T06:25:15;100789.53;;;17.68;64.84
57600;BME280;43426;43.594;24.334;2023-04-24T06:27:41;100809.88;;;17.72;62.41
57600;BME280;43426;43.594;24.334;2023-04-24T06:30:07;100799.63;;;17.61;64.19
57600;BME280;43426;43.594;24.334;2023-04-24T06:32:35;100803.03;;;17.56;64.87
57600;BME280;43426;43.594;24.334;2023-04-24T06:35:00;100787.34;;;17.38;64.40
57600;BME280;43426;43.594;24.334;2023-04-24T06:37:26;100807.22;;;17.59;61.50
57600;BME280;43426;43.594;24.334;2023-04-24T06:39:51;100807.94;;;17.21;64.01
57600;BME280;43426;43.594;24.334;2023-04-24T06:42:17;100816.78;;;17.09;64.96
57600;BME280;43426;43.594;24.334;2023-04-24T06:44:42;100818.06;;;16.73;65.74
57600;BME280;43426;43.594;24.334;2023-04-24T06:47:08;100810.91;;;16.32;67.52
57600;BME280;43426;43.594;24.334;2023-04-24T06:49:37;100828.88;;;16.20;68.52
57600;BME280;43426;43.594;24.334;2023-04-24T06:52:03;100824.25;;;16.00;68.32
57600;BME280;43426;43.594;24.334;2023-04-24T06:54:29;100824.00;;;15.95;69.56
57600;BME280;43426;43.594;24.334;2023-04-24T06:56:54;100821.28;;;15.95;69.68
57600;BME280;43426;43.594;24.334;2023-04-24T06:59:20;100828.22;;;16.04;69.17
57600;BME280;43426;43.594;24.334;2023-04-24T07:01:45;100809.59;;;16.01;69.34
57600;BME280;43426;43.594;24.334;2023-04-24T07:04:11;100825.34;;;16.26;68.12
57600;BME280;43426;43.594;24.334;2023-04-24T07:06:38;100828.69;;;16.21;66.67
57600;BME280;43426;43.594;24.334;2023-04-24T07:09:04;100838.06;;;15.98;67.70
57600;BME280;43426;43.594;24.334;2023-04-24T07:11:29;100838.31;;;16.10;71.33
57600;BME280;43426;43.594;24.334;2023-04-24T07:13:55;100813.38;;;16.07;70.41
57600;BME280;43426;43.594;24.334;2023-04-24T07:16:20;100847.53;;;16.16;68.71
57600;BME280;43426;43.594;24.334;2023-04-24T07:18:46;100839.75;;;15.99;69.41
57600;BME280;43426;43.594;24.334;2023-04-24T07:21:11;100837.78;;;15.87;71.75
57600;BME280;43426;43.594;24.334;2023-04-24T07:23:36;100837.78;;;15.87;69.67
57600;BME280;43426;43.594;24.334;2023-04-24T07:26:02;100839.94;;;15.49;70.20
57600;BME280;43426;43.594;24.334;2023-04-24T07:28:27;100838.09;;;15.22;72.82
57600;BME280;43426;43.594;24.334;2023-04-24T07:30:56;100819.06;;;14.93;73.51
57600;BME280;43426;43.594;24.334;2023-04-24T07:33:25;100847.19;;;15.07;74.36
57600;BME280;43426;43.594;24.334;2023-04-24T07:35:51;100830.06;;;15.07;74.95
57600;BME280;43426;43.594;24.334;2023-04-24T07:38:17;100841.34;;;15.10;74.78
57600;BME280;43426;43.594;24.334;2023-04-24T07:40:45;100821.59;;;14.95;75.38
57600;BME280;43426;43.594;24.334;2023-04-24T07:43:11;100835.13;;;15.17;77.01
57600;BME280;43426;43.594;24.334;2023-04-24T07:45:36;100823.88;;;14.91;76.02
57600;BME280;43426;43.594;24.334;2023-04-24T07:48:02;100841.28;;;14.97;77.99
57600;BME280;43426;43.594;24.334;2023-04-24T07:50:28;100832.06;;;14.98;78.10
57600;BME280;43426;43.594;24.334;2023-04-24T07:52:53;100842.28;;;14.96;77.65
57600;BME280;43426;43.594;24.334;2023-04-24T07:55:18;100847.06;;;14.87;77.50
57600;BME280;43426;43.594;24.334;2023-04-24T07:57:44;100844.91;;;14.82;78.36
57600;BME280;43426;43.594;24.334;2023-04-24T08:00:09;100831.59;;;14.66;79.48
57600;BME280;43426;43.594;24.334;2023-04-24T08:02:35;100823.72;;;14.71;80.45
57600;BME280;43426;43.594;24.334;2023-04-24T08:05:01;100827.38;;;14.85;80.34
57600;BME280;43426;43.594;24.334;2023-04-24T08:07:28;100822.88;;;14.71;79.24
57600;BME280;43426;43.594;24.334;2023-04-24T08:09:53;100845.41;;;14.93;81.57
57600;BME280;43426;43.594;24.334;2023-04-24T08:12:19;100838.28;;;14.92;81.05
57600;BME280;43426;43.594;24.334;2023-04-24T08:14:44;100836.19;;;14.87;81.25
57600;BME280;43426;43.594;24.334;2023-04-24T08:17:09;100819.63;;;14.82;81.30
57600;BME280;43426;43.594;24.334;2023-04-24T08:19:35;100821.94;;;14.85;82.70
57600;BME280;43426;43.594;24.334;2023-04-24T08:22:00;100838.41;;;15.05;83.66
57600;BME280;43426;43.594;24.334;2023-04-24T08:24:26;100843.03;;;15.11;83.32
57600;BME280;43426;43.594;24.334;2023-04-24T08:26:51;100835.44;;;15.00;82.61
57600;BME280;43426;43.594;24.334;2023-04-24T08:29:19;100836.56;;;15.12;83.21
57600;BME280;43426;43.594;24.334;2023-04-24T08:31:44;100833.03;;;15.19;81.73
57600;BME280;43426;43.594;24.334;2023-04-24T08:34:10;100819.75;;;15.30;81.22
57600;BME280;43426;43.594;24.334;2023-04-24T08:36:36;100817.94;;;15.44;81.00
57600;BME280;43426;43.594;24.334;2023-04-24T08:39:01;100788.22;;;15.43;80.62
57600;BME280;43426;43.594;24.334;2023-04-24T08:41:26;100811.28;;;15.54;83.16
57600;BME280;43426;43.594;24.334;2023-04-24T08:43:52;100787.88;;;15.18;80.77
57600;BME280;43426;43.594;24.334;2023-04-24T08:46:18;100808.44;;;15.33;81.10
57600;BME280;43426;43.594;24.334;2023-04-24T08:48:43;100792.75;;;15.29;81.37
57600;BME280;43426;43.594;24.334;2023-04-24T08:51:09;100798.84;;;15.38;79.83
57600;BME280;43426;43.594;24.334;2023-04-24T08:53:35;100805.69;;;15.62;79.40
57600;BME280;43426;43.594;24.334;2023-04-24T08:56:01;100789.66;;;15.80;76.96
57600;BME280;43426;43.594;24.334;2023-04-24T08:58:27;100793.28;;;16.08;75.51
57600;BME280;43426;43.594;24.334;2023-04-24T09:00:57;100776.13;;;16.21;76.83
57600;BME280;43426;43.594;24.334;2023-04-24T09:03:23;100771.13;;;16.58;73.89
57600;BME280;43426;43.594;24.334;2023-04-24T09:05:49;100788.84;;;17.34;73.93
57600;BME280;43426;43.594;24.334;2023-04-24T09:08:17;100761.09;;;17.96;66.12
57600;BME280;43426;43.594;24.334;2023-04-24T09:10:45;100782.66;;;18.36;65.94
57600;BME280;43426;43.594;24.334;2023-04-24T09:13:11;100780.25;;;18.71;65.99
57600;BME280;43426;43.594;24.334;2023-04-24T09:15:39;100776.47;;;19.35;64.54
57600;BME280;43426;43.594;24.334;2023-04-24T09:18:06;100756.09;;;19.31;63.28
57600;BME280;43426;43.594;24.334;2023-04-24T09:20:31;100735.53;;;19.10;62.29
57600;BME280;43426;43.594;24.334;2023-04-24T09:22:57;100761.34;;;19.14;63.94
57600;BME280;43426;43.594;24.334;2023-04-24T09:25:33;100746.06;;;19.06;61.57
57600;BME280;43426;43.594;24.334;2023-04-24T09:28:03;100749.13;;;19.16;61.72
57600;BME280;43426;43.594;24.334;2023-04-24T09:30:29;100716.59;;;19.08;61.63
57600;BME280;43426;43.594;24.334;2023-04-24T09:35:40;100728.94;;;19.78;61.89
57600;BME280;43426;43.594;24.334;2023-04-24T09:38:05;100707.69;;;19.80;62.92
57600;BME280;43426;43.594;24.334;2023-04-24T09:40:34;100718.97;;;19.53;61.48
57600;BME280;43426;43.594;24.334;2023-04-24T09:42:59;100735.06;;;19.80;63.30
57600;BME280;43426;43.594;24.334;2023-04-24T09:45:28;100746.44;;;20.07;61.49
57600;BME280;43426;43.594;24.334;2023-04-24T09:48:00;100741.00;;;20.19;61.70
57600;BME280;43426;43.594;24.334;2023-04-24T09:50:25;100738.47;;;20.06;62.41
57600;BME280;43426;43.594;24.334;2023-04-24T09:52:58;100734.91;;;19.75;64.46
57600;BME280;43426;43.594;24.334;2023-04-24T09:55:25;100723.13;;;20.17;65.00
57600;BME280;43426;43.594;24.334;2023-04-24T09:58:00;100733.28;;;20.40;60.35
57600;BME280;43426;43.594;24.334;2023-04-24T10:00:28;100699.47;;;20.70;61.50
57600;BME280;43426;43.594;24.334;2023-04-24T10:03:00;100728.13;;;21.26;59.41
57600;BME280;43426;43.594;24.334;2023-04-24T10:05:28;100710.31;;;21.29;58.80
57600;BME280;43426;43.594;24.334;2023-04-24T10:08:07;100728.84;;;21.63;57.41
57600;BME280;43426;43.594;24.334;2023-04-24T10:10:35;100709.03;;;21.72;57.23
57600;BME280;43426;43.594;24.334;2023-04-24T10:13:03;100724.63;;;22.18;60.79
57600;BME280;43426;43.594;24.334;2023-04-24T10:15:30;100725.53;;;22.23;54.73
57600;BME280;43426;43.594;24.334;2023-04-24T10:17:57;100719.38;;;22.67;54.62
57600;BME280;43426;43.594;24.334;2023-04-24T10:20:25;100694.84;;;22.83;52.82
57600;BME280;43426;43.594;24.334;2023-04-24T10:22:53;100708.47;;;23.34;53.27
57600;BME280;43426;43.594;24.334;2023-04-24T10:25:20;100702.53;;;23.69;53.61
57600;BME280;43426;43.594;24.334;2023-04-24T10:27:47;100693.47;;;23.74;50.74
57600;BME280;43426;43.594;24.334;2023-04-24T10:30:17;100690.78;;;23.79;49.97
57600;BME280;43426;43.594;24.334;2023-04-24T10:32:43;100691.22;;;23.98;52.41
57600;BME280;43426;43.594;24.334;2023-04-24T10:35:12;100689.94;;;24.06;47.69
57600;BME280;43426;43.594;24.334;2023-04-24T10:37:45;100671.06;;;23.92;50.34
57600;BME280;43426;43.594;24.334;2023-04-24T10:40:18;100698.56;;;23.60;51.04
57600;BME280;43426;43.594;24.334;2023-04-24T10:42:51;100679.09;;;23.17;53.50
57600;BME280;43426;43.594;24.334;2023-04-24T10:45:22;100693.41;;;22.97;53.15
57600;BME280;43426;43.594;24.334;2023-04-24T10:47:53;100670.31;;;23.20;52.76
57600;BME280;43426;43.594;24.334;2023-04-24T10:50:21;100674.22;;;23.79;50.93
57600;BME280;43426;43.594;24.334;2023-04-24T10:52:48;100683.50;;;24.27;50.87
57600;BME280;43426;43.594;24.334;2023-04-24T10:55:17;100657.59;;;24.76;49.52
57600;BME280;43426;43.594;24.334;2023-04-24T10:58:05;100661.31;;;24.50;46.91
57600;BME280;43426;43.594;24.334;2023-04-24T11:00:30;100647.78;;;24.53;48.47
57600;BME280;43426;43.594;24.334;2023-04-24T11:02:56;100669.53;;;24.07;47.93
57600;BME280;43426;43.594;24.334;2023-04-24T11:05:55;100684.38;;;23.73;48.38
57600;BME280;43426;43.594;24.334;2023-04-24T11:08:37;100672.94;;;24.19;48.88
57600;BME280;43426;43.594;24.334;2023-04-24T11:11:15;100671.56;;;24.59;48.45
57600;BME280;43426;43.594;24.334;2023-04-24T11:16:38;100637.47;;;25.65;45.15
57600;BME280;43426;43.594;24.334;2023-04-24T11:19:05;100666.78;;;25.81;44.37
57600;BME280;43426;43.594;24.334;2023-04-24T11:24:38;100657.06;;;25.53;42.85
57600;BME280;43426;43.594;24.334;2023-04-24T11:29:48;100644.94;;;26.00;41.33
57600;BME280;43426;43.594;24.334;2023-04-24T11:32:41;100654.06;;;26.16;44.68
57600;BME280;43426;43.594;24.334;2023-04-24T11:35:12;100646.25;;;26.60;42.22
57600;BME280;43426;43.594;24.334;2023-04-24T11:37:40;100624.09;;;26.60;39.20
57600;BME280;43426;43.594;24.334;2023-04-24T11:40:12;100641.63;;;25.98;39.49
57600;BME280;43426;43.594;24.334;2023-04-24T11:42:41;100634.75;;;26.11;40.26
57600;BME280;43426;43.594;24.334;2023-04-24T11:45:12;100617.59;;;26.04;40.07
57600;BME280;43426;43.594;24.334;2023-04-24T11:47:38;100616.50;;;26.10;42.00
57600;BME280;43426;43.594;24.334;2023-04-24T11:50:06;100603.38;;;26.47;42.38
57600;BME280;43426;43.594;24.334;2023-04-24T11:52:33;100624.22;;;27.10;40.91
57600;BME280;43426;43.594;24.334;2023-04-24T11:55:01;100601.59;;;27.42;38.33
57600;BME280;43426;43.594;24.334;2023-04-24T11:57:27;100597.16;;;26.91;38.04
57600;BME280;43426;43.594;24.334;2023-04-24T11:59:58;100608.13;;;27.12;38.50
57600;BME280;43426;43.594;24.334;2023-04-24T12:02:24;100606.41;;;26.71;37.10
57600;BME280;43426;43.594;24.334;2023-04-24T12:04:53;100612.78;;;26.56;39.43
57600;BME280;43426;43.594;24.334;2023-04-24T12:07:19;100608.81;;;26.88;39.17
57600;BME280;43426;43.594;24.334;2023-04-24T12:09:47;100607.03;;;27.13;37.45
57600;BME280;43426;43.594;24.334;2023-04-24T12:12:15;100588.97;;;27.21;36.96
57600;BME280;43426;43.594;24.334;2023-04-24T12:14:53;100578.19;;;26.59;39.34
57600;BME280;43426;43.594;24.334;2023-04-24T12:17:31;100565.06;;;25.78;38.36
57600;BME280;43426;43.594;24.334;2023-04-24T12:20:07;100575.00;;;25.95;38.20
57600;BME280;43426;43.594;24.334;2023-04-24T12:25:12;100553.41;;;26.12;39.94
57600;BME280;43426;43.594;24.334;2023-04-24T12:27:38;100571.97;;;26.07;38.72
57600;BME280;43426;43.594;24.334;2023-04-24T12:30:05;100550.97;;;25.70;40.67
57600;BME280;43426;43.594;24.334;2023-04-24T12:32:31;100544.34;;;25.81;43.32
57600;BME280;43426;43.594;24.334;2023-04-24T12:34:57;100517.50;;;26.07;41.31
57600;BME280;43426;43.594;24.334;2023-04-24T12:37:31;100552.31;;;26.08;40.09
57600;BME280;43426;43.594;24.334;2023-04-24T12:40:08;100537.41;;;25.83;40.10
57600;BME280;43426;43.594;24.334;2023-04-24T12:42:35;100536.00;;;25.14;41.24
57600;BME280;43426;43.594;24.334;2023-04-24T12:45:03;100514.94;;;24.82;42.48
57600;BME280;43426;43.594;24.334;2023-04-24T12:47:29;100525.91;;;24.61;43.11
57600;BME280;43426;43.594;24.334;2023-04-24T12:49:55;100520.50;;;24.87;43.22
57600;BME280;43426;43.594;24.334;2023-04-24T12:52:25;100493.19;;;25.16;41.74